Time;durP1;ratioP1;P1;durP2;ratioP2;P2;SDS_P1;SDS_P2;PMS_P1;PMS_P2;Temp;Humidity;BMP_temperature;BMP_pressure;BME280_temperature;BME280_humidity;BME280_pressure;Samples;Min_cycle;Max_cycle;Signal;HPM_P1;HPM_P2
2022/01/16 00:00:08;;;;;;;31.15;17.00;;;;;;;-3.28;77.39;94178.31;5110054;28;20650;-58
2022/01/16 00:05:03;;;;;;;21.88;11.75;;;;;;;-3.94;75.58;94166.03;5110120;28;20336;-58
2022/01/16 00:07:28;;;;;;;49.95;24.65;;;;;;;-4.01;76.34;94158.22;5110252;28;20035;-58
2022/01/16 00:09:54;;;;;;;52.92;26.42;;;;;;;-4.13;77.60;94164.38;5107610;28;20039;-58
2022/01/16 00:12:22;;;;;;;35.00;18.38;;;;;;;-4.06;78.84;94158.75;5109838;28;20416;-58
2022/01/16 00:14:48;;;;;;;50.10;26.58;;;;;;;-4.19;78.38;94171.53;5109899;28;20045;-58
2022/01/16 00:17:13;;;;;;;31.67;16.17;;;;;;;-4.58;77.75;94182.84;5106386;28;20048;-58
2022/01/16 00:19:39;;;;;;;36.50;19.58;;;;;;;-4.68;77.21;94203.56;5109988;28;20030;-58
2022/01/16 00:22:12;;;;;;;38.67;18.70;;;;;;;-4.95;78.04;94160.16;5110126;28;20023;-58
2022/01/16 00:24:37;;;;;;;38.85;20.33;;;;;;;-4.54;77.36;94224.66;5107880;28;20390;-58
2022/01/16 00:27:03;;;;;;;33.03;17.40;;;;;;;-4.52;76.74;94248.47;5109818;28;20030;-58
2022/01/16 00:29:31;;;;;;;34.80;18.15;;;;;;;-4.56;77.74;94248.59;5109978;28;20038;-58
2022/01/16 00:31:56;;;;;;;35.88;17.55;;;;;;;-4.22;80.23;94283.69;5111801;28;20031;-59
2022/01/16 00:34:22;;;;;;;33.72;16.63;;;;;;;-4.00;79.87;94316.13;5113722;28;20035;-58
2022/01/16 00:36:48;;;;;;;35.13;16.17;;;;;;;-3.83;79.25;94247.34;5113959;28;20016;-58
2022/01/16 00:39:13;;;;;;;36.83;19.30;;;;;;;-3.80;79.33;94202.56;5113853;28;20172;-59
2022/01/16 00:41:39;;;;;;;29.75;17.00;;;;;;;-3.83;79.41;94237.31;5113366;28;20030;-60
2022/01/16 00:44:05;;;;;;;36.80;18.35;;;;;;;-3.75;79.59;94204.69;5114286;28;20031;-59
2022/01/16 00:46:31;;;;;;;34.28;16.00;;;;;;;-4.10;78.79;94118.44;5113855;28;20027;-59
2022/01/16 00:48:56;;;;;;;36.33;17.73;;;;;;;-4.20;78.25;94113.44;5113911;27;20076;-58
2022/01/16 00:51:22;;;;;;;38.17;20.45;;;;;;;-4.22;78.13;94108.44;5114070;28;20528;-60
2022/01/16 00:53:47;;;;;;;32.80;19.25;;;;;;;-4.10;77.63;94055.66;5113755;28;20466;-60
2022/01/16 00:56:13;;;;;;;25.92;15.13;;;;;;;-4.22;76.56;94072.69;5113790;28;20063;-60
2022/01/16 00:58:39;;;;;;;23.13;13.52;;;;;;;-4.15;75.82;94085.88;5113658;28;20055;-59
2022/01/16 01:01:05;;;;;;;25.02;13.60;;;;;;;-4.16;75.17;94073.59;5113973;28;20435;-60
2022/01/16 01:03:30;;;;;;;26.98;14.93;;;;;;;-4.28;74.77;94147.94;5113546;28;20020;-59
2022/01/16 01:05:56;;;;;;;25.40;14.48;;;;;;;-4.31;75.05;94164.25;5113811;28;20039;-59
2022/01/16 01:08:23;;;;;;;25.80;16.13;;;;;;;-4.39;75.99;94181.81;5113575;28;20412;-60
2022/01/16 01:10:51;;;;;;;35.08;17.30;;;;;;;-4.94;76.90;94140.88;5113345;28;20031;-59
2022/01/16 01:16:04;;;;;;;53.13;27.10;;;;;;;-4.63;77.50;94176.81;5100417;28;20024;-59
2022/01/16 01:18:34;;;;;;;29.67;16.58;;;;;;;-4.38;76.89;94172.56;5092724;28;20109;-59
2022/01/16 01:21:02;;;;;;;27.80;14.88;;;;;;;-4.67;76.46;94181.56;5093166;28;20121;-59
2022/01/16 01:23:29;;;;;;;27.00;15.23;;;;;;;-4.93;76.61;94198.16;5093095;28;20051;-59
2022/01/16 01:25:54;;;;;;;34.47;15.77;;;;;;;-4.93;76.32;94174.69;5093066;28;20035;-59
2022/01/16 01:28:20;;;;;;;28.95;15.45;;;;;;;-5.06;76.55;94190.09;5102111;28;20485;-59
2022/01/16 01:30:45;;;;;;;31.27;16.95;;;;;;;-5.09;76.86;94193.63;5112864;28;20550;-59
2022/01/16 01:33:13;;;;;;;30.02;17.52;;;;;;;-4.86;76.63;94173.72;5112484;28;20051;-59
2022/01/16 01:35:40;;;;;;;28.67;15.43;;;;;;;-4.86;76.25;94171.03;5110103;28;20046;-59
2022/01/16 01:38:09;;;;;;;26.75;14.40;;;;;;;-4.95;76.11;94201.31;5109863;27;20055;-57
2022/01/16 01:40:36;;;;;;;17.92;10.38;;;;;;;-4.95;76.30;94198.59;5110490;28;20015;-55
2022/01/16 01:51:27;;;;;;;22.43;11.97;;;;;;;-4.86;73.76;94236.44;5065913;28;20542;-60
2022/01/16 01:53:55;;;;;;;17.05;11.30;;;;;;;-5.42;74.88;94211.16;5094368;28;20565;-57
2022/01/16 01:56:22;;;;;;;26.35;12.00;;;;;;;-5.61;75.15;94223.59;5097914;28;20035;-56
2022/01/16 01:58:49;;;;;;;48.33;23.75;;;;;;;-5.63;75.86;94225.22;5112426;28;20096;-56
2022/01/16 02:01:15;;;;;;;35.80;18.23;;;;;;;-5.43;75.82;94234.63;5112466;28;20027;-54
2022/01/16 02:06:06;;;;;;;36.90;20.05;;;;;;;-5.59;76.26;94233.94;5112411;28;20023;-54
2022/01/16 02:08:35;;;;;;;32.13;18.77;;;;;;;-5.79;75.80;94230.66;5111143;28;20027;-55
2022/01/16 02:11:02;;;;;;;28.75;15.75;;;;;;;-5.62;75.74;94234.78;5112451;28;20028;-54
2022/01/16 02:13:35;;;;;;;31.42;16.65;;;;;;;-5.79;76.46;94236.03;5112200;28;20106;-55
2022/01/16 02:34:36;;;;;;;30.33;14.45;;;;;;;-5.68;76.80;94239.19;5105021;28;20023;-59
2022/01/16 02:37:06;;;;;;;26.92;13.05;;;;;;;-5.76;76.31;94233.22;5091742;28;20157;-59
2022/01/16 02:39:36;;;;;;;26.23;13.30;;;;;;;-5.87;76.65;94226.69;5091390;28;20028;-59
2022/01/16 02:42:04;;;;;;;22.65;13.07;;;;;;;-5.78;76.25;94214.09;5091546;28;20417;-59
2022/01/16 02:44:41;;;;;;;24.53;13.13;;;;;;;-5.67;75.18;94214.53;5091277;28;20511;-59
2022/01/16 02:47:10;;;;;;;23.77;13.00;;;;;;;-5.57;75.10;94220.81;5103454;28;20417;-59
2022/01/16 02:49:36;;;;;;;28.25;13.52;;;;;;;-5.52;74.52;94218.34;5111143;28;20020;-59
2022/01/16 02:52:05;;;;;;;26.38;14.77;;;;;;;-5.54;73.89;94215.34;5111174;28;20329;-59
2022/01/16 02:54:35;;;;;;;25.23;14.20;;;;;;;-5.61;73.78;94212.84;5110773;28;20031;-59
2022/01/16 02:57:01;;;;;;;27.55;14.30;;;;;;;-5.55;74.15;94205.78;5111139;28;20058;-59
2022/01/16 02:59:27;;;;;;;32.95;15.80;;;;;;;-5.80;74.68;94156.53;5111191;28;20019;-59
2022/01/16 03:01:53;;;;;;;34.50;17.05;;;;;;;-5.50;74.43;94204.50;5110929;27;20557;-59
2022/01/16 03:04:18;;;;;;;26.85;15.90;;;;;;;-5.69;74.50;94173.13;5110827;28;20054;-59
2022/01/16 03:06:44;;;;;;;30.92;17.85;;;;;;;-5.64;74.11;94207.56;5110784;28;20031;-49
2022/01/16 03:09:10;;;;;;;33.10;16.75;;;;;;;-5.90;74.18;94212.16;5110689;28;20030;-49
2022/01/16 03:11:39;;;;;;;29.85;15.88;;;;;;;-5.81;73.45;94204.19;5110620;28;20024;-51
2022/01/16 03:14:12;;;;;;;33.67;15.70;;;;;;;-5.84;73.40;94199.69;5110587;28;20427;-50
2022/01/16 03:16:41;;;;;;;33.53;16.60;;;;;;;-5.85;73.31;94197.44;5107256;28;20039;-55
2022/01/16 03:22:03;;;;;;;33.88;14.43;;;;;;;-6.05;73.26;94212.94;5108426;28;19914;-55
2022/01/16 03:24:40;;;;;;;26.83;13.37;;;;;;;-6.10;73.08;94208.06;5107062;28;20250;-54
2022/01/16 03:27:09;;;;;;;27.05;14.07;;;;;;;-5.97;73.06;94211.56;5110745;28;20028;-56
2022/01/16 03:29:36;;;;;;;32.58;14.00;;;;;;;-5.93;73.08;94212.25;5110433;28;20024;-56
2022/01/16 03:32:04;;;;;;;22.70;13.18;;;;;;;-6.01;72.20;94208.22;5109762;28;20032;-55
2022/01/16 03:34:30;;;;;;;23.02;11.13;;;;;;;-6.01;72.53;94211.66;5110410;28;20530;-55
2022/01/16 03:36:55;;;;;;;28.00;13.93;;;;;;;-6.12;71.50;94215.81;5110371;28;20077;-54
2022/01/16 03:39:21;;;;;;;21.88;12.38;;;;;;;-6.52;72.07;94186.47;5110584;28;20059;-49
2022/01/16 03:41:47;;;;;;;24.88;11.73;;;;;;;-6.39;71.96;94222.22;5110572;28;20472;-49
2022/01/16 03:44:12;;;;;;;22.25;12.23;;;;;;;-6.72;73.27;94223.44;5110530;28;20448;-49
2022/01/16 03:46:41;;;;;;;33.33;13.48;;;;;;;-6.54;72.57;94223.75;5110303;28;20502;-50
2022/01/16 03:49:12;;;;;;;30.40;13.30;;;;;;;-6.44;73.71;94227.38;5107753;28;20390;-49
2022/01/16 03:51:39;;;;;;;29.55;13.23;;;;;;;-6.36;72.64;94220.63;5110261;28;20332;-49
2022/01/16 03:54:05;;;;;;;23.33;12.50;;;;;;;-6.42;71.93;94230.38;5110026;28;20020;-48
2022/01/16 03:56:31;;;;;;;36.75;15.13;;;;;;;-6.53;73.73;94236.03;5110464;28;20096;-49
2022/01/16 03:58:57;;;;;;;59.30;22.33;;;;;;;-6.64;73.07;94224.78;5110050;28;20477;-49
2022/01/16 04:01:24;;;;;;;40.65;17.17;;;;;;;-6.77;72.43;94226.63;5110089;28;20053;-49
2022/01/16 04:03:51;;;;;;;43.78;21.63;;;;;;;-6.61;72.43;94240.06;5110371;28;20416;-59
2022/01/16 04:06:17;;;;;;;54.53;24.00;;;;;;;-6.60;72.90;94232.72;5110846;28;20055;-58
2022/01/16 04:08:43;;;;;;;54.05;23.75;;;;;;;-6.48;71.97;94240.91;5114490;28;20051;-58
2022/01/16 04:11:08;;;;;;;53.35;23.83;;;;;;;-6.62;71.13;94243.16;5113979;28;20519;-58
2022/01/16 04:13:34;;;;;;;47.40;19.92;;;;;;;-6.72;71.35;94242.22;5114219;28;20019;-57
2022/01/16 04:16:00;;;;;;;42.05;21.42;;;;;;;-6.76;71.56;94248.84;5111498;28;20023;-56
2022/01/16 04:18:25;;;;;;;54.33;24.70;;;;;;;-6.91;72.92;94251.13;5113785;28;20157;-57
2022/01/16 04:20:51;;;;;;;54.20;24.48;;;;;;;-6.78;72.62;94251.22;5113766;28;20077;-56
2022/01/16 04:23:16;;;;;;;49.53;21.15;;;;;;;-6.77;72.39;94260.75;5113959;28;20077;-56
2022/01/16 04:25:42;;;;;;;26.55;12.63;;;;;;;-6.73;71.97;94262.19;5113419;28;20051;-50
2022/01/16 04:28:07;;;;;;;33.97;15.43;;;;;;;-6.73;71.49;94262.19;5111918;28;20032;-50
2022/01/16 04:30:33;;;;;;;30.10;17.33;;;;;;;-6.71;69.88;94259.84;5113400;28;20029;-51
2022/01/16 04:32:59;;;;;;;34.90;16.42;;;;;;;-6.77;70.27;94268.81;5113430;28;20047;-49
2022/01/16 04:35:25;;;;;;;38.92;18.33;;;;;;;-6.78;70.48;94257.34;5113658;28;20019;-53
2022/01/16 04:37:50;;;;;;;39.90;18.42;;;;;;;-6.82;70.86;94263.97;5111582;27;20030;-53
2022/01/16 04:40:16;;;;;;;42.00;17.45;;;;;;;-7.06;70.96;94252.59;5112393;28;20027;-51
2022/01/16 04:45:27;;;;;;;51.72;23.70;;;;;;;-7.00;73.47;94264.34;5113493;28;20077;-51
2022/01/16 04:47:53;;;;;;;69.90;29.17;;;;;;;-6.82;72.68;94267.38;5113018;28;20473;-53
2022/01/16 04:50:21;;;;;;;51.35;24.30;;;;;;;-6.80;72.87;94270.44;5112856;28;20080;-57
2022/01/16 04:52:47;;;;;;;35.50;19.08;;;;;;;-6.71;72.45;94270.59;5110929;28;20024;-57
2022/01/16 04:55:13;;;;;;;36.33;18.88;;;;;;;-6.58;72.73;94260.69;5112558;28;20530;-57
2022/01/16 04:57:39;;;;;;;34.67;16.75;;;;;;;-6.47;72.37;94260.44;5112818;28;20028;-57
2022/01/16 05:00:10;;;;;;;35.25;17.40;;;;;;;-6.44;73.90;94257.69;5113458;28;20026;-57
2022/01/16 05:02:36;;;;;;;33.30;16.25;;;;;;;-6.40;73.61;94249.53;5113580;28;20019;-57
2022/01/16 05:05:02;;;;;;;27.67;14.57;;;;;;;-6.45;73.79;94258.84;5113245;28;20508;-57
2022/01/16 05:07:28;;;;;;;28.50;15.80;;;;;;;-6.46;74.31;94253.91;5113854;27;20492;-55
2022/01/16 05:09:53;;;;;;;34.25;17.50;;;;;;;-6.42;74.89;94258.00;5113509;28;20035;-57
2022/01/16 05:12:27;;;;;;;47.67;24.45;;;;;;;-6.32;74.70;94259.69;5113691;28;20039;-57
2022/01/16 05:17:36;;;;;;;21.52;11.23;;;;;;;-6.03;73.91;94254.34;5092935;28;20058;-57
2022/01/16 05:20:03;;;;;;;18.70;10.38;;;;;;;-6.02;73.79;94255.13;5092917;28;20032;-57
2022/01/16 05:22:28;;;;;;;18.67;11.18;;;;;;;-6.16;74.34;94250.84;5093175;28;20458;-58
2022/01/16 05:24:54;;;;;;;18.48;12.10;;;;;;;-6.28;75.07;94246.16;5113256;28;20024;-58
2022/01/16 05:27:19;;;;;;;32.03;16.23;;;;;;;-5.98;76.34;94253.84;5113472;28;20072;-58
2022/01/16 05:29:45;;;;;;;25.67;14.73;;;;;;;-5.73;75.29;94250.47;5113156;28;20480;-58
2022/01/16 05:32:10;;;;;;;52.42;25.13;;;;;;;-5.59;73.90;94247.41;5112568;28;20035;-58
2022/01/16 05:34:36;;;;;;;38.10;19.17;;;;;;;-5.51;74.42;94254.09;5113407;28;20128;-58
2022/01/16 05:37:01;;;;;;;30.38;15.02;;;;;;;-5.53;75.12;94238.38;5112862;28;20032;-60
2022/01/16 05:39:28;;;;;;;34.50;16.70;;;;;;;-5.44;73.69;94248.50;5112688;28;20122;-60
2022/01/16 05:41:54;;;;;;;44.25;22.08;;;;;;;-5.23;72.87;94260.59;5113169;28;20035;-59
2022/01/16 05:44:19;;;;;;;36.08;17.27;;;;;;;-5.13;72.70;94251.50;5113072;28;20032;-60
2022/01/16 05:46:45;;;;;;;32.15;17.25;;;;;;;-5.10;73.26;94266.75;5112350;28;20492;-59
2022/01/16 05:49:10;;;;;;;40.92;23.67;;;;;;;-5.05;72.71;94261.63;5111124;28;20035;-59
2022/01/16 05:51:36;;;;;;;33.22;17.50;;;;;;;-4.97;72.70;94262.91;5111282;28;20409;-59
2022/01/16 05:54:02;;;;;;;34.65;19.95;;;;;;;-5.00;72.49;94271.84;5112326;28;20057;-59
2022/01/16 05:56:27;;;;;;;33.20;19.73;;;;;;;-5.05;72.52;94269.69;5112103;28;20026;-59
2022/01/16 05:58:53;;;;;;;49.05;22.95;;;;;;;-5.22;74.02;94270.19;5112114;28;20019;-59
2022/01/16 06:01:18;;;;;;;49.90;23.98;;;;;;;-5.11;74.30;94274.09;5112023;28;20110;-58
2022/01/16 06:03:44;;;;;;;53.72;26.30;;;;;;;-5.05;74.08;94274.31;5111838;28;20055;-59
2022/01/16 06:06:09;;;;;;;66.30;30.15;;;;;;;-5.18;74.08;94258.16;5112136;28;20034;-59
2022/01/16 06:08:38;;;;;;;69.20;30.63;;;;;;;-5.30;75.97;94280.41;5111924;28;20027;-60
2022/01/16 06:11:04;;;;;;;62.22;28.27;;;;;;;-5.31;76.61;94275.44;5112265;27;20024;-59
2022/01/16 06:13:29;;;;;;;137.13;58.35;;;;;;;-5.20;76.83;94271.28;5111988;28;20412;-61
2022/01/16 06:15:55;;;;;;;132.35;53.83;;;;;;;-4.93;76.51;94281.66;5108411;28;20044;-59
2022/01/16 06:18:20;;;;;;;94.25;41.47;;;;;;;-5.01;75.92;94283.03;5111694;28;20139;-56
2022/01/16 06:20:47;;;;;;;91.45;43.38;;;;;;;-4.97;76.88;94286.38;5108847;28;20066;-58
2022/01/16 06:23:14;;;;;;;64.35;32.30;;;;;;;-4.86;76.39;94284.91;5111631;28;20074;-59
2022/01/16 06:25:40;;;;;;;78.38;37.15;;;;;;;-4.97;76.64;94276.38;5111855;28;20065;-52
2022/01/16 06:28:05;;;;;;;71.35;32.42;;;;;;;-5.09;77.59;94282.47;5111656;28;20339;-56
2022/01/16 06:30:31;;;;;;;67.30;34.15;;;;;;;-5.07;77.55;94288.22;5102409;28;20024;-55
2022/01/16 06:32:56;;;;;;;62.20;31.33;;;;;;;-5.08;78.06;94300.16;5109892;28;20120;-54
2022/01/16 06:35:22;;;;;;;58.97;30.65;;;;;;;-4.86;77.91;94298.38;5110089;28;20138;-57
2022/01/16 06:37:48;;;;;;;50.85;26.83;;;;;;;-4.71;77.99;94309.47;5110201;28;20106;-60
2022/01/16 06:40:14;;;;;;;37.92;18.02;;;;;;;-4.79;76.70;94305.47;5109717;28;20023;-60
2022/01/16 06:42:40;;;;;;;30.35;17.05;;;;;;;-4.89;77.93;94296.53;5110166;28;20043;-58
2022/01/16 06:45:07;;;;;;;33.17;17.77;;;;;;;-4.54;78.04;94310.13;5110177;28;20411;-58
2022/01/16 06:47:33;;;;;;;38.47;18.05;;;;;;;-4.32;76.95;94303.66;5110359;28;20028;-58
2022/01/16 06:49:58;;;;;;;45.60;23.20;;;;;;;-4.26;77.70;94306.53;5110345;28;20050;-60
2022/01/16 06:52:24;;;;;;;42.15;20.13;;;;;;;-4.13;77.82;94299.97;5110041;28;20032;-60
2022/01/16 06:54:49;;;;;;;40.00;20.13;;;;;;;-3.98;77.07;94302.94;5109576;28;20023;-60
2022/01/16 06:57:15;;;;;;;44.10;21.33;;;;;;;-3.82;75.93;94300.13;5109548;28;20022;-60
2022/01/16 06:59:41;;;;;;;38.10;21.23;;;;;;;-3.68;75.53;94296.94;5109173;28;20112;-59
2022/01/16 07:02:06;;;;;;;43.05;20.45;;;;;;;-3.55;76.01;94302.31;5109198;28;20026;-59
2022/01/16 07:04:32;;;;;;;49.30;25.13;;;;;;;-3.38;75.16;94312.47;5108676;28;20164;-60
2022/01/16 07:06:58;;;;;;;52.22;27.85;;;;;;;-3.27;74.67;94320.22;5097128;27;20024;-60
2022/01/16 07:09:23;;;;;;;66.72;33.45;;;;;;;-3.18;74.22;94328.38;5100215;28;20080;-60
2022/01/16 07:11:49;;;;;;;48.67;27.25;;;;;;;-3.11;73.82;94328.13;5106471;28;20054;-54
2022/01/16 07:14:14;;;;;;;51.00;27.35;;;;;;;-2.97;72.98;94335.00;5106979;28;20073;-58
2022/01/16 07:16:40;;;;;;;52.50;28.55;;;;;;;-3.02;73.55;94335.53;5106750;28;20023;-55
2022/01/16 07:19:05;;;;;;;59.33;31.88;;;;;;;-3.02;74.20;94341.72;5106367;28;20075;-58
2022/01/16 07:21:31;;;;;;;79.38;34.38;;;;;;;-2.83;73.52;94346.03;5106947;28;20046;-59
2022/01/16 07:23:56;;;;;;;78.53;35.38;;;;;;;-2.77;73.35;94335.44;5106137;28;20019;-60
2022/01/16 07:26:22;;;;;;;123.50;54.08;;;;;;;-2.78;73.33;94333.91;5105954;28;20042;-60
2022/01/16 07:28:48;;;;;;;94.15;46.90;;;;;;;-2.73;73.01;94331.38;5105778;28;20106;-59
2022/01/16 07:31:13;;;;;;;74.25;34.45;;;;;;;-2.68;73.16;94330.06;5105250;28;20031;-59
2022/01/16 07:33:39;;;;;;;85.78;41.72;;;;;;;-2.67;74.24;94332.34;5106920;28;20034;-60
2022/01/16 07:36:05;;;;;;;112.55;53.97;;;;;;;-2.82;74.55;94338.69;5107155;28;20026;-59
2022/01/16 07:38:31;;;;;;;72.55;36.95;;;;;;;-2.92;75.62;94347.94;5106736;28;20561;-58
2022/01/16 07:40:56;;;;;;;60.80;30.30;;;;;;;-2.91;75.52;94328.59;5106232;28;20015;-58
2022/01/16 07:43:23;;;;;;;63.58;30.20;;;;;;;-2.54;75.44;94353.88;5096514;28;20139;-59
2022/01/16 07:45:48;;;;;;;55.58;28.05;;;;;;;-2.42;74.37;94350.31;5107241;28;20030;-58
2022/01/16 07:48:14;;;;;;;50.90;28.77;;;;;;;-2.57;75.11;94349.34;5106964;28;20023;-59
2022/01/16 07:50:40;;;;;;;52.47;27.98;;;;;;;-2.51;75.71;94358.38;5106612;28;20106;-59
2022/01/16 07:53:06;;;;;;;46.47;26.60;;;;;;;-2.51;75.69;94342.16;5105899;28;20499;-59
2022/01/16 07:55:32;;;;;;;58.03;27.38;;;;;;;-2.21;75.47;94360.34;5106633;28;20110;-58
2022/01/16 07:57:58;;;;;;;50.60;25.88;;;;;;;-2.03;75.29;94368.53;5107002;28;20122;-58
2022/01/16 08:00:24;;;;;;;38.40;22.98;;;;;;;-1.98;75.17;94373.38;5106342;28;20023;-56
2022/01/16 08:02:50;;;;;;;34.03;19.33;;;;;;;-1.88;74.47;94372.19;5106782;28;20016;-57
2022/01/16 08:05:18;;;;;;;17.80;11.15;;;;;;;-1.78;73.94;94351.31;5106255;28;20038;-52
2022/01/16 08:07:45;;;;;;;24.67;13.95;;;;;;;-1.70;73.77;94366.06;5104208;28;20028;-59
2022/01/16 08:10:11;;;;;;;25.95;14.90;;;;;;;-1.54;73.79;94371.97;5106402;28;20036;-58
2022/01/16 08:12:37;;;;;;;28.10;16.48;;;;;;;-1.43;74.06;94358.00;5105587;28;20488;-61
2022/01/16 08:15:04;;;;;;;22.33;11.95;;;;;;;-1.33;72.84;94358.75;5105943;28;20026;-58
2022/01/16 08:17:29;;;;;;;19.83;12.32;;;;;;;-1.21;72.55;94358.63;5106070;28;20051;-58
2022/01/16 08:19:55;;;;;;;38.80;22.13;;;;;;;-1.16;72.60;94360.75;5106510;28;20024;-57
2022/01/16 08:22:20;;;;;;;34.78;18.45;;;;;;;-1.05;72.77;94368.41;5106567;28;20019;-58
2022/01/16 08:24:46;;;;;;;22.58;13.55;;;;;;;-1.25;71.62;94368.84;5106875;28;20024;-58
2022/01/16 08:27:13;;;;;;;18.95;11.25;;;;;;;-1.24;71.99;94359.53;5106492;28;20441;-59
2022/01/16 08:29:38;;;;;;;16.67;9.88;;;;;;;-1.25;72.75;94355.31;5105790;28;20015;-60
2022/01/16 08:32:05;;;;;;;27.25;14.27;;;;;;;-1.20;72.49;94353.97;5105335;28;20052;-59
2022/01/16 08:34:30;;;;;;;24.80;13.52;;;;;;;-1.09;71.87;94348.84;5105806;28;20024;-59
2022/01/16 08:36:56;;;;;;;30.90;15.82;;;;;;;-0.97;71.63;94367.66;5104888;28;20040;-58
2022/01/16 08:39:23;;;;;;;21.05;13.18;;;;;;;-0.86;71.77;94353.66;5102513;28;20026;-60
2022/01/16 08:41:49;;;;;;;22.63;12.68;;;;;;;-0.80;71.61;94351.81;5102684;28;20051;-61
2022/01/16 08:44:14;;;;;;;21.55;13.65;;;;;;;-0.63;71.21;94338.72;5105622;28;20024;-58
2022/01/16 08:46:40;;;;;;;22.45;12.23;;;;;;;-0.74;71.33;94325.63;5107307;28;20097;-59
2022/01/16 08:49:05;;;;;;;26.90;15.70;;;;;;;-0.39;70.62;94356.56;5106559;28;20141;-60
2022/01/16 08:51:31;;;;;;;25.92;14.23;;;;;;;-0.23;70.33;94355.47;5107176;28;20024;-55
2022/01/16 08:53:57;;;;;;;20.15;12.20;;;;;;;-0.21;68.98;94356.53;5108356;28;20020;-55
2022/01/16 08:56:22;;;;;;;21.33;12.63;;;;;;;-0.18;68.67;94344.78;5108070;28;20028;-60
2022/01/16 08:58:48;;;;;;;18.77;11.73;;;;;;;-0.15;68.34;94343.09;5111569;28;20025;-58
2022/01/16 09:01:13;;;;;;;16.60;9.45;;;;;;;-0.06;68.29;94348.47;5109800;28;20505;-60
2022/01/16 09:03:39;;;;;;;17.00;12.32;;;;;;;0.07;68.69;94346.31;5107629;27;20111;-60
2022/01/16 09:06:05;;;;;;;18.08;12.05;;;;;;;0.24;68.38;94346.72;5109935;28;20098;-60
2022/01/16 09:08:31;;;;;;;17.77;10.05;;;;;;;0.17;67.60;94326.06;5108729;28;20031;-60
2022/01/16 09:10:56;;;;;;;29.38;22.17;;;;;;;0.19;67.31;94331.03;5108923;28;20336;-59
2022/01/16 09:13:22;;;;;;;17.88;11.13;;;;;;;0.53;67.26;94322.38;5109926;28;20036;-59
2022/01/16 09:15:49;;;;;;;15.65;9.48;;;;;;;0.52;65.53;94321.63;5108690;28;20412;-58
2022/01/16 09:18:16;;;;;;;14.77;10.05;;;;;;;0.80;65.61;94321.47;5108782;28;20075;-59
2022/01/16 09:20:42;;;;;;;14.48;8.45;;;;;;;0.59;65.58;94328.69;5109075;28;20043;-59
2022/01/16 09:23:09;;;;;;;15.43;9.27;;;;;;;0.46;65.19;94328.16;5109482;28;20157;-59
2022/01/16 09:25:36;;;;;;;14.25;8.13;;;;;;;0.25;65.30;94327.22;5109570;28;20028;-59
2022/01/16 09:28:02;;;;;;;16.65;8.85;;;;;;;0.02;67.19;94322.53;5110888;28;20815;-59
2022/01/16 09:30:29;;;;;;;16.77;9.45;;;;;;;0.16;67.69;94323.81;5109963;28;20027;-59
2022/01/16 09:32:55;;;;;;;17.35;11.60;;;;;;;0.13;67.40;94303.75;5109966;28;20049;-59
2022/01/16 09:35:20;;;;;;;22.27;11.48;;;;;;;0.37;67.64;94309.94;5110150;28;20147;-59
2022/01/16 09:37:46;;;;;;;21.02;11.20;;;;;;;0.70;66.80;94299.00;5109781;28;20027;-59
2022/01/16 09:40:14;;;;;;;15.45;9.48;;;;;;;1.16;65.42;94305.59;5110353;28;20055;-60
2022/01/16 09:42:40;;;;;;;13.00;8.40;;;;;;;1.51;64.26;94303.75;5109555;28;20016;-60
2022/01/16 09:45:08;;;;;;;23.40;8.82;;;;;;;1.90;63.07;94295.44;5109730;28;20046;-60
2022/01/16 09:47:34;;;;;;;14.82;9.63;;;;;;;2.14;61.52;94293.31;5110085;28;20492;-60
2022/01/16 09:49:59;;;;;;;13.25;9.25;;;;;;;2.16;60.34;94280.72;5109645;28;20038;-60
2022/01/16 09:52:25;;;;;;;13.43;8.35;;;;;;;2.01;60.16;94282.75;5101566;27;20027;-60
2022/01/16 09:54:51;;;;;;;12.70;8.25;;;;;;;2.46;60.78;94272.44;5108313;28;20428;-60
2022/01/16 09:57:16;;;;;;;17.27;10.82;;;;;;;2.82;58.69;94272.63;5109617;28;20412;-60
2022/01/16 09:59:45;;;;;;;11.45;7.90;;;;;;;2.74;56.44;94271.56;5109515;28;20035;-60
2022/01/16 10:02:11;;;;;;;14.10;9.07;;;;;;;3.24;56.18;94274.06;5109481;28;20043;-60
2022/01/16 10:04:41;;;;;;;12.60;8.25;;;;;;;4.73;52.85;94275.16;5108172;28;20058;-60
2022/01/16 10:07:10;;;;;;;9.80;7.35;;;;;;;5.47;49.78;94263.91;5109364;28;20026;-62
2022/01/16 10:09:37;;;;;;;18.40;10.23;;;;;;;6.95;48.79;94254.03;5109389;28;20058;-61
2022/01/16 10:12:13;;;;;;;14.02;9.30;;;;;;;8.08;45.60;94256.28;5106043;28;20076;-61
2022/01/16 10:14:46;;;;;;;11.93;7.75;;;;;;;7.54;43.76;94250.69;5107991;28;20019;-61
2022/01/16 10:17:23;;;;;;;11.65;7.57;;;;;;;8.86;41.79;94254.28;5109519;28;20282;-60
2022/01/16 10:20:05;;;;;;;10.35;8.73;;;;;;;9.86;38.39;94247.44;5108155;28;20030;-61
2022/01/16 10:22:49;;;;;;;8.95;6.93;;;;;;;9.84;39.39;94247.97;5109168;28;20520;-38
2022/01/16 10:25:18;;;;;;;11.38;7.88;;;;;;;10.42;37.25;94250.06;5108577;28;20039;-43
2022/01/16 10:27:45;;;;;;;12.23;7.75;;;;;;;11.05;35.69;94246.38;5109082;28;20027;-42
2022/01/16 10:30:14;;;;;;;10.48;7.00;;;;;;;10.39;35.63;94240.84;5108360;28;20036;-42
2022/01/16 10:32:44;;;;;;;14.97;9.03;;;;;;;10.89;37.20;94237.16;5108926;28;20019;-42
2022/01/16 10:35:15;;;;;;;11.48;8.80;;;;;;;11.60;36.04;94233.41;5108595;28;20449;-44
2022/01/16 10:37:43;;;;;;;11.48;8.68;;;;;;;11.68;35.14;94235.00;5108398;28;20031;-47
2022/01/16 10:40:14;;;;;;;15.30;12.05;;;;;;;11.74;34.39;94226.56;5108432;28;20708;-42
2022/01/16 10:42:41;;;;;;;7.97;6.35;;;;;;;11.21;34.71;94229.47;5106875;28;20047;-43
2022/01/16 10:45:14;;;;;;;16.60;7.60;;;;;;;11.94;35.05;94223.09;5107380;28;20107;-44
2022/01/16 10:47:41;;;;;;;9.70;7.13;;;;;;;11.96;33.61;94221.28;5106564;28;20039;-44
2022/01/16 10:50:19;;;;;;;9.13;8.00;;;;;;;12.06;32.81;94222.28;5109015;28;20020;-43
2022/01/16 10:52:47;;;;;;;11.48;7.75;;;;;;;10.95;35.51;94212.19;5109190;28;20455;-42
2022/01/16 10:55:13;;;;;;;9.68;7.75;;;;;;;11.15;35.61;94212.25;5108369;28;20028;-45
2022/01/16 10:57:40;;;;;;;12.75;9.57;;;;;;;11.48;34.10;94210.78;5107607;28;20051;-42
2022/01/16 11:00:11;;;;;;;14.15;9.25;;;;;;;11.63;34.70;94202.66;5107973;28;20038;-42
2022/01/16 11:02:37;;;;;;;16.15;11.93;;;;;;;11.56;35.13;94194.28;5103376;28;20527;-42
2022/01/16 11:05:12;;;;;;;23.08;14.63;;;;;;;11.50;34.65;94194.41;5108852;28;20024;-42
2022/01/16 11:07:38;;;;;;;10.73;8.65;;;;;;;11.03;34.24;94196.44;5108033;28;20479;-41
2022/01/16 11:10:23;;;;;;;11.77;9.35;;;;;;;11.77;35.03;94178.47;5108681;28;20081;-42
2022/01/16 11:12:49;;;;;;;12.02;8.32;;;;;;;12.01;34.47;94186.47;5107103;28;20020;-45
2022/01/16 11:15:15;;;;;;;9.52;7.60;;;;;;;12.04;33.85;94169.50;5107205;28;20035;-42
2022/01/16 11:17:41;;;;;;;12.27;8.60;;;;;;;12.46;32.85;94188.84;5107638;28;20043;-42
2022/01/16 11:20:08;;;;;;;10.32;7.30;;;;;;;11.70;33.38;94190.22;5108107;28;20030;-41
2022/01/16 11:22:56;;;;;;;15.05;10.63;;;;;;;12.03;33.94;94187.41;5107039;28;20015;-43
2022/01/16 11:25:31;;;;;;;18.35;9.52;;;;;;;11.53;34.77;94187.81;5106657;28;20024;-41
2022/01/16 11:27:58;;;;;;;16.02;11.52;;;;;;;11.52;35.67;94172.47;5108315;28;20569;-41
2022/01/16 11:30:24;;;;;;;13.90;11.10;;;;;;;12.13;34.33;94180.09;5107824;28;20023;-42
2022/01/16 11:32:50;;;;;;;12.25;8.85;;;;;;;12.08;34.43;94180.25;5107807;28;20124;-42
2022/01/16 11:35:16;;;;;;;11.35;7.97;;;;;;;11.80;34.18;94178.13;5106879;28;20020;-43
2022/01/16 11:37:42;;;;;;;10.10;7.97;;;;;;;10.79;35.47;94182.84;5100996;28;20084;-41
2022/01/16 11:40:41;;;;;;;12.13;9.10;;;;;;;10.45;35.80;94175.22;5103595;28;20016;-41
2022/01/16 11:43:17;;;;;;;12.63;9.23;;;;;;;10.97;36.53;94170.94;5107299;28;20401;-41
2022/01/16 11:45:49;;;;;;;12.20;9.45;;;;;;;10.83;36.93;94166.72;5107116;28;20035;-42
2022/01/16 11:48:35;;;;;;;13.50;8.85;;;;;;;11.15;36.21;94159.72;5106909;28;20027;-46
2022/01/16 11:51:02;;;;;;;12.32;7.82;;;;;;;11.04;35.24;94156.47;5106868;27;20516;-41
2022/01/16 11:53:53;;;;;;;72.80;33.63;;;;;;;11.04;36.20;94142.66;5106297;28;20034;-44
2022/01/16 11:56:37;;;;;;;15.02;10.52;;;;;;;11.36;35.52;94145.97;5102701;28;20027;-46
2022/01/16 11:59:15;;;;;;;9.85;7.40;;;;;;;11.33;34.96;94142.25;5105198;28;20579;-44
2022/01/16 12:01:46;;;;;;;10.15;7.65;;;;;;;11.16;34.66;94146.66;5105288;28;20600;-44